Mount Hikurangi — VRMC8 — position and weather

sailwx.info

Track history (hours):
 
Tides and Currents Weather Stations Pressure Air Temp Water Temp Dewpoint Dewpoint Depression Visibility Wind Speed Wind Dir Waves Ship Positions

Mount Hikurangi

Last reported at 2017-Dec-16 03:25 UTC. Time now 2017-Dec-16 03:37 UTC.
Position N 46°06' W 122°57'.

Length 175 m; draft 6.8 m.

Type: Cargo ship. MMSI: 477195600.

Date/timePositionNaut miles runAvg speedWind from/ knotsBaromVisibWave heightAir tempDewpointWater temp
2017-Dec-16 03:25N 46°06' W 122°57'0 0.1
2017-Dec-16 02:58N 46°06' W 122°57'0 0.0
2017-Dec-16 02:28N 46°06' W 122°57'0 0.0
2017-Dec-16 01:58N 46°06' W 122°57'0 0.0
2017-Dec-16 01:28N 46°06' W 122°57'0 0.0
2017-Dec-16 00:58N 46°06' W 122°57'0 0.0
2017-Dec-16 00:28N 46°06' W 122°57'0 0.0
2017-Dec-15 23:58N 46°06' W 122°57'0 0.1
2017-Dec-15 23:13N 46°06' W 122°57'0 0.0
2017-Dec-15 22:46N 46°06' W 122°57'0 0.0
2017-Dec-15 21:19N 46°06' W 122°57'0 0.0
2017-Dec-15 20:58N 46°06' W 122°57'0 0.0
2017-Dec-15 20:07N 46°06' W 122°57'0 0.0
2017-Dec-15 19:58N 46°06' W 122°57'0 0.0
2017-Dec-15 19:19N 46°06' W 122°57'0 0.0
2017-Dec-15 18:55N 46°06' W 122°57'0 0.0
2017-Dec-15 18:28N 46°06' W 122°57'0 0.0
2017-Dec-15 17:58N 46°06' W 122°57'0 0.0
2017-Dec-15 17:28N 46°06' W 122°57'0 0.0
2017-Dec-15 16:55N 46°06' W 122°57'0 0.0
2017-Dec-15 16:28N 46°06' W 122°57'0 0.0
2017-Dec-15 15:55N 46°06' W 122°57'0 0.0
2017-Dec-15 15:28N 46°06' W 122°57'0 0.0
2017-Dec-15 14:58N 46°06' W 122°57'0 0.0
2017-Dec-15 14:28N 46°06' W 122°57'0 0.0
2017-Dec-15 13:31N 46°06' W 122°57'0 0.1
2017-Dec-15 13:28N 46°06' W 122°57'0 0.0
2017-Dec-15 12:22N 46°06' W 122°57'0 0.0
2017-Dec-15 11:52N 46°06' W 122°57'0 0.0
2017-Dec-15 11:28N 46°06' W 122°57'0 0.0
2017-Dec-15 10:58N 46°06' W 122°57'0 0.0
2017-Dec-15 10:22N 46°06' W 122°57'0 0.0
2017-Dec-15 09:46N 46°06' W 122°57'0 0.0
2017-Dec-15 09:19N 46°06' W 122°57'0 0.0
2017-Dec-15 08:58N 46°06' W 122°57'0 0.0
2017-Dec-15 08:28N 46°06' W 122°57'0 0.0
2017-Dec-15 07:58N 46°06' W 122°57'0 0.0
2017-Dec-15 07:28N 46°06' W 122°57'0 0.0
2017-Dec-15 06:58N 46°06' W 122°57'0 0.0
2017-Dec-15 06:28N 46°06' W 122°57'0 0.0
2017-Dec-15 05:52N 46°06' W 122°57'0 0.0
2017-Dec-15 05:04N 46°06' W 122°57'0 0.0
2017-Dec-15 04:55N 46°06' W 122°57'0 0.0
2017-Dec-15 04:25N 46°06' W 122°57'0 0.0
2017-Dec-15 03:40N 46°06' W 122°57'0 0.0
2017-Dec-15 02:28N 46°06' W 122°57'0 0.0
2017-Dec-15 00:55N 46°06' W 122°57'0 0.0
2017-Dec-15 00:25N 46°06' W 122°57'0 0.0
2017-Dec-14 18:31N 46°06' W 122°57'1 1.7
2017-Dec-14 18:00N 46°06' W 122°58'4 8.2
2017-Dec-14 17:30N 46°09' W 123°03'5 9.2
2017-Dec-14 17:00N 46°11' W 123°08'611.0
2017-Dec-14 16:30N 46°09' W 123°16'510.5
2017-Dec-14 16:01N 46°09' W 123°23'9 8.7
2017-Dec-14 15:01N 46°16' W 123°31'611.7
2017-Dec-14 14:31N 46°15' W 123°40'611.7
2017-Dec-14 14:01N 46°13' W 123°47'4 8.8
2017-Dec-14 13:31N 46°11' W 123°53'5 9.9
2017-Dec-14 13:01N 46°14' W 123°59'5 9.6
2017-Dec-14 12:31N 46°15' W 124°06'510.7
2017-Dec-14 12:01N 46°13' W 124°13'510.7
2017-Dec-14 11:31N 46°16' W 124°20'611.5
2017-Dec-14 11:01N 46°19' W 124°26'5 9.9
2017-Dec-14 10:31N 46°23' W 124°32'510.1
2017-Dec-14 10:01N 46°26' W 124°37'712.4
2017-Dec-14 09:25N 46°31' W 124°45'512.0
2017-Dec-14 09:01N 46°34' W 124°50'612.4
2017-Dec-14 08:31N 46°38' W 124°57'712.9
2017-Dec-14 08:00N 46°43' W 125°04'3239.0
2017-Dec-14 08:00N 46°42' W 125°00'918.8 090 / 181027.0 5.4 9.0 2.5 6.0
2017-Dec-14 07:30N 46°47' W 125°11'613.0
2017-Dec-14 07:01N 46°51' W 125°18'713.0
2017-Dec-14 06:30N 46°56' W 125°25'612.4
2017-Dec-14 06:00N 46°60' W 125°32'48 8.0
2017-Dec-14 00:00N 47°48' W 125°30'1411.1 070 / 101031.0 5.4 8.0 3.8 6.0
2017-Dec-13 22:44N 48°02' W 125°35'2 9.4
2017-Dec-13 22:30N 48°04' W 125°33'5 9.5
2017-Dec-13 22:00N 48°08' W 125°29'5 9.7
2017-Dec-13 21:29N 48°12' W 125°25'5 9.6
2017-Dec-13 21:00N 48°16' W 125°22'5 9.5
2017-Dec-13 20:30N 48°20' W 125°18'4 7.3
2017-Dec-13 20:00N 48°22' W 125°14'5891.5
2017-Dec-13 20:00N 48°24' W 125°06'3 6.0 070 / 151031.010.8 9.0 2.5 6.0
2017-Dec-13 19:30N 48°25' W 125°10'3 6.2
2017-Dec-13 19:00N 48°27' W 125°07'4 7.9
2017-Dec-13 18:27N 48°30' W 125°02'510.5
2017-Dec-13 18:00N 48°31' W 124°55'612.4
2017-Dec-13 17:31N 48°31' W 124°46'612.2
2017-Dec-13 17:00N 48°29' W 124°37'612.9
2017-Dec-13 16:30N 48°26' W 124°28'713.6
2017-Dec-13 16:00N 48°24' W 124°19'713.6
2017-Dec-13 15:30N 48°21' W 124°09'714.0
2017-Dec-13 15:00N 48°18' W 123°60'714.4
2017-Dec-13 14:30N 48°17' W 123°49'815.0
2017-Dec-13 14:00N 48°16' W 123°38'611.2
2017-Dec-13 13:30N 48°17' W 123°30'3 6.2
2017-Dec-13 12:59N 48°19' W 123°27'3 6.6
2017-Dec-13 12:30N 48°22' W 123°25'5 9.1
2017-Dec-13 12:00N 48°23' W 123°18'612.3
2017-Dec-13 11:31N 48°28' W 123°12'714.2
2017-Dec-13 11:00N 48°35' W 123°14'713.7
2017-Dec-13 10:31N 48°42' W 123°15'713.3
2017-Dec-13 10:00N 48°45' W 123°06'510.9
2017-Dec-13 09:30N 48°50' W 123°02'713.7
2017-Dec-13 09:00N 48°54' W 123°09'713.5
2017-Dec-13 08:30N 48°59' W 123°17'611.2
2017-Dec-13 08:00N 49°04' W 123°20'510.1
2017-Dec-13 07:30N 49°08' W 123°15'611.5
2017-Dec-13 07:00N 49°07' W 123°06'611.4
2017-Dec-13 06:30N 49°09' W 122°58'3 5.8
2017-Dec-13 06:01N 49°11' W 122°55'0 0.2
2017-Dec-13 05:29N 49°11' W 122°55'0 0.0
2017-Dec-13 04:59N 49°11' W 122°55'0 0.0
2017-Dec-13 04:29N 49°11' W 122°55'0 0.0
2017-Dec-13 03:59N 49°11' W 122°55'0 0.0
2017-Dec-13 03:29N 49°11' W 122°55'0 0.0
2017-Dec-13 02:59N 49°11' W 122°55'0 0.0
2017-Dec-13 02:29N 49°11' W 122°55'0 0.0
2017-Dec-13 01:59N 49°11' W 122°55'0 0.0
2017-Dec-13 01:29N 49°11' W 122°55'0 0.0
2017-Dec-13 00:59N 49°11' W 122°55'0 0.0
2017-Dec-13 00:29N 49°11' W 122°55'0 0.0
2017-Dec-12 23:59N 49°11' W 122°55'0 0.0
2017-Dec-12 23:29N 49°11' W 122°55'0 0.0
2017-Dec-12 22:59N 49°11' W 122°55'0 0.0
2017-Dec-12 22:29N 49°11' W 122°55'0 0.0
2017-Dec-12 21:59N 49°11' W 122°55'0 0.0
2017-Dec-12 21:29N 49°11' W 122°55'0 0.0
2017-Dec-12 20:59N 49°11' W 122°55'0 0.0
2017-Dec-12 20:29N 49°11' W 122°55'0 0.0
2017-Dec-12 19:59N 49°11' W 122°55'0 0.0
2017-Dec-12 19:29N 49°11' W 122°55'0 0.0
2017-Dec-12 18:56N 49°11' W 122°55'0 0.0
2017-Dec-12 18:26N 49°11' W 122°55'0 0.0
2017-Dec-12 17:59N 49°11' W 122°55'0 0.0
2017-Dec-12 17:29N 49°11' W 122°55'0 0.0
2017-Dec-12 16:59N 49°11' W 122°55'0 0.0
2017-Dec-12 16:29N 49°11' W 122°55'0 0.0
2017-Dec-12 15:59N 49°11' W 122°55'0 0.0
2017-Dec-12 15:29N 49°11' W 122°55'0 0.0
2017-Dec-12 14:59N 49°11' W 122°55'0 0.0
2017-Dec-12 14:29N 49°11' W 122°55'0 0.0
2017-Dec-12 13:59N 49°11' W 122°55'0 0.0
2017-Dec-12 13:29N 49°11' W 122°55'0 0.0
2017-Dec-12 12:59N 49°11' W 122°55'0 0.0
2017-Dec-12 12:29N 49°11' W 122°55'0 0.0
2017-Dec-12 11:59N 49°11' W 122°55'0 0.0
2017-Dec-12 11:29N 49°11' W 122°55'0 0.0
2017-Dec-12 10:59N 49°11' W 122°55'0 0.0
2017-Dec-12 10:29N 49°11' W 122°55'0 0.0
2017-Dec-12 09:59N 49°11' W 122°55'0 0.0
2017-Dec-12 09:29N 49°11' W 122°55'0 0.0
2017-Dec-12 08:59N 49°11' W 122°55'0 0.0
2017-Dec-12 08:29N 49°11' W 122°55'0 0.0
2017-Dec-12 07:59N 49°11' W 122°55'0 0.0
2017-Dec-12 07:29N 49°11' W 122°55'0 0.0
2017-Dec-12 06:56N 49°11' W 122°55'0 0.0
2017-Dec-12 06:29N 49°11' W 122°55'0 0.0
2017-Dec-12 05:59N 49°11' W 122°55'0 0.0
2017-Dec-12 05:29N 49°11' W 122°55'0 0.0
2017-Dec-12 04:59N 49°11' W 122°55'0 0.0
2017-Dec-12 04:29N 49°11' W 122°55'0 0.0
2017-Dec-12 03:59N 49°11' W 122°55'0 0.0
2017-Dec-12 03:29N 49°11' W 122°55'0 0.0
2017-Dec-12 02:59N 49°11' W 122°55'0 0.0
2017-Dec-12 02:29N 49°11' W 122°55'0 0.0
2017-Dec-12 01:59N 49°11' W 122°55'0 0.0
2017-Dec-12 01:26N 49°11' W 122°55'0 0.0
2017-Dec-12 00:56N 49°11' W 122°55'0 0.0
2017-Dec-12 00:29N 49°11' W 122°55'0 0.0
2017-Dec-11 23:59N 49°11' W 122°55'0 0.0
2017-Dec-11 23:29N 49°11' W 122°55'0 0.0
2017-Dec-11 22:59N 49°11' W 122°55'0 0.0
2017-Dec-11 22:29N 49°11' W 122°55'0 0.0
2017-Dec-11 21:59N 49°11' W 122°55'0 0.0
2017-Dec-11 21:26N 49°11' W 122°55'0 0.0
2017-Dec-11 20:59N 49°11' W 122°55'0 0.0
2017-Dec-11 20:29N 49°11' W 122°55'0 0.0
2017-Dec-11 19:59N 49°11' W 122°55'0 0.0
2017-Dec-11 19:29N 49°11' W 122°55'0 0.0
2017-Dec-11 18:59N 49°11' W 122°55'0 0.0
2017-Dec-11 18:29N 49°11' W 122°55'0 0.0
2017-Dec-11 17:59N 49°11' W 122°55'0 0.0
2017-Dec-11 17:29N 49°11' W 122°55'0 0.0
2017-Dec-11 16:59N 49°11' W 122°55'0 0.0
2017-Dec-11 16:29N 49°11' W 122°55'0 0.0
2017-Dec-11 15:59N 49°11' W 122°55'0 0.0
2017-Dec-11 15:29N 49°11' W 122°55'0 0.0
2017-Dec-11 14:59N 49°11' W 122°55'0 0.0
2017-Dec-11 14:29N 49°11' W 122°55'0 0.0
2017-Dec-11 13:59N 49°11' W 122°55'0 0.0
2017-Dec-11 13:29N 49°11' W 122°55'0 0.0
2017-Dec-11 12:59N 49°11' W 122°55'0 0.0
2017-Dec-11 12:29N 49°11' W 122°55'0 0.0
2017-Dec-11 11:59N 49°11' W 122°55'0 0.0
2017-Dec-11 11:29N 49°11' W 122°55'0 0.0
2017-Dec-11 10:59N 49°11' W 122°55'0 0.0
2017-Dec-11 10:29N 49°11' W 122°55'0 0.0
2017-Dec-11 09:59N 49°11' W 122°55'0 0.0
2017-Dec-11 09:29N 49°11' W 122°55'0 0.0
2017-Dec-11 08:59N 49°11' W 122°55'0 0.0
2017-Dec-11 08:29N 49°11' W 122°55'0 0.0
2017-Dec-11 07:59N 49°11' W 122°55'0 0.0
2017-Dec-11 07:29N 49°11' W 122°55'0 0.0
2017-Dec-11 06:59N 49°11' W 122°55'0 0.0
2017-Dec-11 06:29N 49°11' W 122°55'0 0.0
2017-Dec-11 05:59N 49°11' W 122°55'0 0.0
2017-Dec-11 05:29N 49°11' W 122°55'0 0.0
2017-Dec-11 04:59N 49°11' W 122°55'0 0.0
2017-Dec-11 04:29N 49°11' W 122°55'0 0.0
2017-Dec-11 03:59N 49°11' W 122°55'0 0.0
2017-Dec-11 03:29N 49°11' W 122°55'0 0.0
2017-Dec-11 02:59N 49°11' W 122°55'0 0.0
2017-Dec-11 02:29N 49°11' W 122°55'0 0.0
2017-Dec-11 01:59N 49°11' W 122°55'0 0.0
2017-Dec-11 01:29N 49°11' W 122°55'0 0.0
2017-Dec-11 00:59N 49°11' W 122°55'0 0.0
2017-Dec-11 00:29N 49°11' W 122°55'0 0.0
2017-Dec-10 23:59N 49°11' W 122°55'0 0.0
2017-Dec-10 23:29N 49°11' W 122°55'0 0.0
2017-Dec-10 22:59N 49°11' W 122°55'0 0.0
2017-Dec-10 22:29N 49°11' W 122°55'0 0.0
2017-Dec-10 21:59N 49°11' W 122°55'0 0.0
2017-Dec-10 21:29N 49°11' W 122°55'0 0.0
2017-Dec-10 20:59N 49°11' W 122°55'0 0.0
2017-Dec-10 20:29N 49°11' W 122°55'0 0.0
2017-Dec-10 19:59N 49°11' W 122°55'0 0.0
2017-Dec-10 19:29N 49°11' W 122°55'0 0.0
2017-Dec-10 18:59N 49°11' W 122°55'0 0.0
2017-Dec-10 18:29N 49°11' W 122°55'0 0.0
2017-Dec-10 17:59N 49°11' W 122°55'0 0.0
2017-Dec-10 17:29N 49°11' W 122°55'0 0.0
2017-Dec-10 16:59N 49°11' W 122°55'0 0.0
2017-Dec-10 16:29N 49°11' W 122°55'0 0.0
2017-Dec-10 15:59N 49°11' W 122°55'0 0.0
2017-Dec-10 15:29N 49°11' W 122°55'0 0.0
2017-Dec-10 14:59N 49°11' W 122°55'0 0.0
2017-Dec-10 14:29N 49°11' W 122°55'0 0.0
2017-Dec-10 13:59N 49°11' W 122°55'0 0.0
2017-Dec-10 13:29N 49°11' W 122°55'0 0.0
2017-Dec-10 12:59N 49°11' W 122°55'0 0.0
2017-Dec-10 12:29N 49°11' W 122°55'0 0.0
2017-Dec-10 11:59N 49°11' W 122°55'0 0.0
2017-Dec-10 11:29N 49°11' W 122°55'0 0.0
2017-Dec-10 10:59N 49°11' W 122°55'0 0.0
2017-Dec-10 10:29N 49°11' W 122°55'0 0.0
2017-Dec-10 09:59N 49°11' W 122°55'0 0.0
2017-Dec-10 09:29N 49°11' W 122°55'0 0.0
2017-Dec-10 08:59N 49°11' W 122°55'0 0.0
2017-Dec-10 08:29N 49°11' W 122°55'0 0.0
2017-Dec-10 07:59N 49°11' W 122°55'0 0.0
2017-Dec-10 07:29N 49°11' W 122°55'0 0.0
2017-Dec-10 06:59N 49°11' W 122°55'0 0.0
2017-Dec-10 06:29N 49°11' W 122°55'0 0.0
2017-Dec-10 05:59N 49°11' W 122°55'0 0.0
2017-Dec-10 05:29N 49°11' W 122°55'0 0.0
2017-Dec-10 04:59N 49°11' W 122°55'0 0.0
2017-Dec-10 04:29N 49°11' W 122°55'0 0.0
2017-Dec-10 03:59N 49°11' W 122°55'0 0.0
2017-Dec-10 03:29N 49°11' W 122°55'0 0.0
2017-Dec-10 02:59N 49°11' W 122°55'0 0.0
2017-Dec-10 02:29N 49°11' W 122°55'0 0.0
2017-Dec-10 01:59N 49°11' W 122°55'0 0.0
2017-Dec-10 01:29N 49°11' W 122°55'0 0.0
2017-Dec-10 00:59N 49°11' W 122°55'0 0.0
2017-Dec-10 00:29N 49°11' W 122°55'0 0.0
2017-Dec-09 23:59N 49°11' W 122°55'0 0.0
2017-Dec-09 23:29N 49°11' W 122°55'0 0.0
2017-Dec-09 22:59N 49°11' W 122°55'0 0.0
2017-Dec-09 22:29N 49°11' W 122°55'0 0.0
2017-Dec-09 21:59N 49°11' W 122°55'0 0.0
2017-Dec-09 21:29N 49°11' W 122°55'0 0.0
2017-Dec-09 20:59N 49°11' W 122°55'0 0.0
2017-Dec-09 20:29N 49°11' W 122°55'0 0.0
2017-Dec-09 19:59N 49°11' W 122°55'0 0.0
2017-Dec-09 19:29N 49°11' W 122°55'0 0.0
2017-Dec-09 18:59N 49°11' W 122°55'0 0.0
2017-Dec-09 18:29N 49°11' W 122°55'0 0.0
2017-Dec-09 17:59N 49°11' W 122°55'0 0.0
2017-Dec-09 17:29N 49°11' W 122°55'0 0.0
2017-Dec-09 16:59N 49°11' W 122°55'0 0.0
2017-Dec-09 16:29N 49°11' W 122°55'0 0.0
2017-Dec-09 15:59N 49°11' W 122°55'0 0.0
2017-Dec-09 15:29N 49°11' W 122°55'0 0.0
2017-Dec-09 14:59N 49°11' W 122°55'0 0.0
2017-Dec-09 14:29N 49°11' W 122°55'0 0.0
2017-Dec-09 13:59N 49°11' W 122°55'0 0.0
2017-Dec-09 13:29N 49°11' W 122°55'0 0.0
2017-Dec-09 12:59N 49°11' W 122°55'0 0.0
2017-Dec-09 12:29N 49°11' W 122°55'0 0.0
2017-Dec-09 11:59N 49°11' W 122°55'0 0.0
2017-Dec-09 11:29N 49°11' W 122°55'0 0.0
2017-Dec-09 10:59N 49°11' W 122°55'0 0.0
2017-Dec-09 10:29N 49°11' W 122°55'0 0.0
2017-Dec-09 09:59N 49°11' W 122°55'0 0.0
2017-Dec-09 09:29N 49°11' W 122°55'0 0.0
2017-Dec-09 08:59N 49°11' W 122°55'0 0.0
2017-Dec-09 08:29N 49°11' W 122°55'0 0.0
2017-Dec-09 07:59N 49°11' W 122°55'0 0.0
2017-Dec-09 07:29N 49°11' W 122°55'0 0.0
2017-Dec-09 06:56N 49°11' W 122°55'0 0.0
2017-Dec-09 06:29N 49°11' W 122°55'0 0.0
2017-Dec-09 05:59N 49°11' W 122°55'0 0.0
2017-Dec-09 05:29N 49°11' W 122°55'0 0.0
2017-Dec-09 04:59N 49°11' W 122°55'0 0.0
2017-Dec-09 04:29N 49°11' W 122°55'0 0.0
2017-Dec-09 03:59N 49°11' W 122°55'0 0.0
2017-Dec-09 03:29N 49°11' W 122°55'0 0.0
2017-Dec-09 02:59N 49°11' W 122°55'0 0.0
2017-Dec-09 02:29N 49°11' W 122°55'0 0.0
2017-Dec-09 01:59N 49°11' W 122°55'0 0.0
2017-Dec-09 01:26N 49°11' W 122°55'0 0.0
2017-Dec-09 00:59N 49°11' W 122°55'0 0.0
2017-Dec-09 00:29N 49°11' W 122°55'0 0.0
2017-Dec-08 23:59N 49°11' W 122°55'0 0.0
2017-Dec-08 23:26N 49°11' W 122°55'0 0.0
2017-Dec-08 22:59N 49°11' W 122°55'0 0.0
2017-Dec-08 22:29N 49°11' W 122°55'0 0.0
2017-Dec-08 21:59N 49°11' W 122°55'0 0.0
2017-Dec-08 21:29N 49°11' W 122°55'0 0.2
2017-Dec-08 21:00N 49°11' W 122°55'1 2.7
2017-Dec-08 20:30N 49°10' W 122°56'4 8.9
2017-Dec-08 20:00N 49°09' W 123°02'5 9.4
2017-Dec-08 19:30N 49°06' W 123°09'5 9.6
2017-Dec-08 19:00N 49°07' W 123°16'4 8.6
2017-Dec-08 18:30N 49°05' W 123°21'510.2
2017-Dec-08 18:00N 49°01' W 123°15'612.1
2017-Dec-08 17:30N 48°57' W 123°09'612.5
2017-Dec-08 17:00N 48°52' W 123°02'611.2
2017-Dec-08 16:31N 48°47' W 123°01'714.5
2017-Dec-08 16:01N 48°43' W 123°11'510.6
2017-Dec-08 15:31N 48°38' W 123°14'714.6
2017-Dec-08 15:01N 48°31' W 123°11'713.6
2017-Dec-08 14:31N 48°24' W 123°12'713.6
2017-Dec-08 14:01N 48°22' W 123°22'3 6.3
2017-Dec-08 13:31N 48°19' W 123°24'3 6.5
2017-Dec-08 13:01N 48°16' W 123°26'5 9.1
2017-Dec-08 12:30N 48°13' W 123°32'4 8.2
2017-Dec-08 12:00N 48°13' W 123°38'5 9.9
2017-Dec-08 11:31N 48°13' W 123°45'510.3
2017-Dec-08 11:00N 48°13' W 123°53'5 9.8
2017-Dec-08 10:31N 48°15' W 123°60'611.3
2017-Dec-08 10:01N 48°17' W 124°08'510.8
2017-Dec-08 09:31N 48°19' W 124°15'510.2
2017-Dec-08 09:01N 48°22' W 124°22'5 9.8
2017-Dec-08 08:31N 48°24' W 124°29'5 9.4
2017-Dec-08 08:01N 48°26' W 124°35'4219.3
2017-Dec-08 08:00N 48°24' W 124°30'816.7 120 / 151031.0 5.4 7.0-0.0 8.0
2017-Dec-08 07:30N 48°27' W 124°41'4 8.8
2017-Dec-08 07:00N 48°28' W 124°48'5 9.4
2017-Dec-08 06:30N 48°29' W 124°55'5 9.9
2017-Dec-08 06:01N 48°29' W 125°02'510.0
2017-Dec-08 05:31N 48°28' W 125°10'510.3
2017-Dec-08 05:00N 48°29' W 125°17'510.5
2017-Dec-08 04:30N 48°30' W 125°25'510.4
2017-Dec-08 04:00N 48°30' W 125°33'510.5
2017-Dec-08 03:30N 48°31' W 125°41'510.4
2017-Dec-08 03:01N 48°31' W 125°49'510.7
2017-Dec-08 02:30N 48°32' W 125°57'510.7
2017-Dec-08 02:00N 48°33' W 126°05'611.0
2017-Dec-08 01:30N 48°33' W 126°13'611.2
2017-Dec-08 01:00N 48°34' W 126°21'611.2
2017-Dec-08 00:31N 48°34' W 126°30'611.2
2017-Dec-08 00:00N 48°35' W 126°38'5356.6
2017-Dec-08 00:00N 48°30' W 126°36'918.6 120 / 221028.027.0 11.0 7.2 8.0
2017-Dec-07 23:30N 48°36' W 126°47'511.0
2017-Dec-07 23:01N 48°36' W 126°55'611.0
2017-Dec-07 22:28N 48°36' W 127°04'510.6
2017-Dec-07 22:00N 48°37' W 127°11'5 7.3
2017-Dec-07 21:22N 48°38' W 127°18'511.3
2017-Dec-07 20:56N 48°38' W 127°26'1011.4
2017-Dec-07 20:03N 48°40' W 127°41'592.7
2017-Dec-07 20:00N 48°36' W 127°36'1218.6 130 / 261027.0 5.4 11.0 5.0 7.0
2017-Dec-07 19:22N 48°40' W 127°52'511.3
2017-Dec-07 18:55N 48°41' W 127°60'8 8.7
2017-Dec-07 18:00N 48°42' W 128°12'3611.9 130 / 251027.010.8 10.0 3.8 7.0
2017-Dec-07 15:00N 48°42' W 129°06'4411.0 130 / 231026.810.8 9.0 4.9 8.0
2017-Dec-07 11:00N 48°48' W 130°12'3612.0 140 / 231027.0 5.4 9.0 7.0 7.0
2017-Dec-07 08:00N 48°54' W 131°06'6310.6 130 / 241027.010.8 9.0 7.0 7.0
2017-Dec-07 02:00N 49°00' W 132°42'20 9.8 140 / 251026.510.8 9.0 6.0 7.0
2017-Dec-07 00:00N 49°00' W 133°12'4110.3 140 / 291026.0 2.2 10.0 6.0 6.0
2017-Dec-06 20:00N 49°12' W 134°12'8 7.8 140 / 301026.0 2.2 11.0 5.0 6.0
2017-Dec-06 19:00N 49°12' W 134°24'43 8.6 140 / 301025.0 5.4 10.0 3.8 6.0
2017-Dec-06 14:00N 49°30' W 135°24'5919.6 140 / 301025.010.8 8.5 5.5 6.0
2017-Dec-06 11:00N 49°36' W 136°54'26 8.7 150 / 281025.0 2.2 9.0 2.5 6.0
2017-Dec-06 08:00N 49°48' W 136°18'13 6.3 150 / 331025.0 2.2 9.0 2.5 6.0
2017-Dec-06 06:00N 50°00' W 136°24'   150 / 351025.0 5.4 9.0 4.9 6.0
Track history (hours):
 
Tides and Currents Weather Stations Pressure Air Temp Water Temp Dewpoint Dewpoint Depression Visibility Wind Speed Wind Dir Waves Ship Positions

Mount Hikurangi

Last reported at 2017-Dec-16 03:25 UTC. Time now 2017-Dec-16 03:37 UTC.
Position N 46°06' W 122°57'.

Length 175 m; draft 6.8 m.

Type: Cargo ship. MMSI: 477195600.

Date/timePositionNaut miles runAvg speedWind from/ knotsBaromVisibWave heightAir tempDewpointWater temp
2017-Dec-16 03:25N 46°06' W 122°57'0 0.1
2017-Dec-16 02:58N 46°06' W 122°57'0 0.0
2017-Dec-16 02:28N 46°06' W 122°57'0 0.0
2017-Dec-16 01:58N 46°06' W 122°57'0 0.0
2017-Dec-16 01:28N 46°06' W 122°57'0 0.0
2017-Dec-16 00:58N 46°06' W 122°57'0 0.0
2017-Dec-16 00:28N 46°06' W 122°57'0 0.0
2017-Dec-15 23:58N 46°06' W 122°57'0 0.1
2017-Dec-15 23:13N 46°06' W 122°57'0 0.0
2017-Dec-15 22:46N 46°06' W 122°57'0 0.0
2017-Dec-15 21:19N 46°06' W 122°57'0 0.0
2017-Dec-15 20:58N 46°06' W 122°57'0 0.0
2017-Dec-15 20:07N 46°06' W 122°57'0 0.0
2017-Dec-15 19:58N 46°06' W 122°57'0 0.0
2017-Dec-15 19:19N 46°06' W 122°57'0 0.0
2017-Dec-15 18:55N 46°06' W 122°57'0 0.0
2017-Dec-15 18:28N 46°06' W 122°57'0 0.0
2017-Dec-15 17:58N 46°06' W 122°57'0 0.0
2017-Dec-15 17:28N 46°06' W 122°57'0 0.0
2017-Dec-15 16:55N 46°06' W 122°57'0 0.0
2017-Dec-15 16:28N 46°06' W 122°57'0 0.0
2017-Dec-15 15:55N 46°06' W 122°57'0 0.0
2017-Dec-15 15:28N 46°06' W 122°57'0 0.0
2017-Dec-15 14:58N 46°06' W 122°57'0 0.0
2017-Dec-15 14:28N 46°06' W 122°57'0 0.0
2017-Dec-15 13:31N 46°06' W 122°57'0 0.1
2017-Dec-15 13:28N 46°06' W 122°57'0 0.0
2017-Dec-15 12:22N 46°06' W 122°57'0 0.0
2017-Dec-15 11:52N 46°06' W 122°57'0 0.0
2017-Dec-15 11:28N 46°06' W 122°57'0 0.0
2017-Dec-15 10:58N 46°06' W 122°57'0 0.0
2017-Dec-15 10:22N 46°06' W 122°57'0 0.0
2017-Dec-15 09:46N 46°06' W 122°57'0 0.0
2017-Dec-15 09:19N 46°06' W 122°57'0 0.0
2017-Dec-15 08:58N 46°06' W 122°57'0 0.0
2017-Dec-15 08:28N 46°06' W 122°57'0 0.0
2017-Dec-15 07:58N 46°06' W 122°57'0 0.0
2017-Dec-15 07:28N 46°06' W 122°57'0 0.0
2017-Dec-15 06:58N 46°06' W 122°57'0 0.0
2017-Dec-15 06:28N 46°06' W 122°57'0 0.0
2017-Dec-15 05:52N 46°06' W 122°57'0 0.0
2017-Dec-15 05:04N 46°06' W 122°57'0 0.0
2017-Dec-15 04:55N 46°06' W 122°57'0 0.0
2017-Dec-15 04:25N 46°06' W 122°57'0 0.0
2017-Dec-15 03:40N 46°06' W 122°57'0 0.0
2017-Dec-15 02:28N 46°06' W 122°57'0 0.0
2017-Dec-15 00:55N 46°06' W 122°57'0 0.0
2017-Dec-15 00:25N 46°06' W 122°57'0 0.0
2017-Dec-14 18:31N 46°06' W 122°57'1 1.7
2017-Dec-14 18:00N 46°06' W 122°58'4 8.2
2017-Dec-14 17:30N 46°09' W 123°03'5 9.2
2017-Dec-14 17:00N 46°11' W 123°08'611.0
2017-Dec-14 16:30N 46°09' W 123°16'510.5
2017-Dec-14 16:01N 46°09' W 123°23'9 8.7
2017-Dec-14 15:01N 46°16' W 123°31'611.7
2017-Dec-14 14:31N 46°15' W 123°40'611.7
2017-Dec-14 14:01N 46°13' W 123°47'4 8.8
2017-Dec-14 13:31N 46°11' W 123°53'5 9.9
2017-Dec-14 13:01N 46°14' W 123°59'5 9.6
2017-Dec-14 12:31N 46°15' W 124°06'510.7
2017-Dec-14 12:01N 46°13' W 124°13'510.7
2017-Dec-14 11:31N 46°16' W 124°20'611.5
2017-Dec-14 11:01N 46°19' W 124°26'5 9.9
2017-Dec-14 10:31N 46°23' W 124°32'510.1
2017-Dec-14 10:01N 46°26' W 124°37'712.4
2017-Dec-14 09:25N 46°31' W 124°45'512.0
2017-Dec-14 09:01N 46°34' W 124°50'612.4
2017-Dec-14 08:31N 46°38' W 124°57'712.9
2017-Dec-14 08:00N 46°43' W 125°04'3239.0
2017-Dec-14 08:00N 46°42' W 125°00'918.8 090 / 181027.0 5.4 9.0 2.5 6.0
2017-Dec-14 07:30N 46°47' W 125°11'613.0
2017-Dec-14 07:01N 46°51' W 125°18'713.0
2017-Dec-14 06:30N 46°56' W 125°25'612.4
2017-Dec-14 06:00N 46°60' W 125°32'48 8.0
2017-Dec-14 00:00N 47°48' W 125°30'1411.1 070 / 101031.0 5.4 8.0 3.8 6.0
2017-Dec-13 22:44N 48°02' W 125°35'2 9.4
2017-Dec-13 22:30N 48°04' W 125°33'5 9.5
2017-Dec-13 22:00N 48°08' W 125°29'5 9.7
2017-Dec-13 21:29N 48°12' W 125°25'5 9.6
2017-Dec-13 21:00N 48°16' W 125°22'5 9.5
2017-Dec-13 20:30N 48°20' W 125°18'4 7.3
2017-Dec-13 20:00N 48°22' W 125°14'5891.5
2017-Dec-13 20:00N 48°24' W 125°06'3 6.0 070 / 151031.010.8 9.0 2.5 6.0
2017-Dec-13 19:30N 48°25' W 125°10'3 6.2
2017-Dec-13 19:00N 48°27' W 125°07'4 7.9
2017-Dec-13 18:27N 48°30' W 125°02'510.5
2017-Dec-13 18:00N 48°31' W 124°55'612.4
2017-Dec-13 17:31N 48°31' W 124°46'612.2
2017-Dec-13 17:00N 48°29' W 124°37'612.9
2017-Dec-13 16:30N 48°26' W 124°28'713.6
2017-Dec-13 16:00N 48°24' W 124°19'713.6
2017-Dec-13 15:30N 48°21' W 124°09'714.0
2017-Dec-13 15:00N 48°18' W 123°60'714.4
2017-Dec-13 14:30N 48°17' W 123°49'815.0
2017-Dec-13 14:00N 48°16' W 123°38'611.2
2017-Dec-13 13:30N 48°17' W 123°30'3 6.2
2017-Dec-13 12:59N 48°19' W 123°27'3 6.6
2017-Dec-13 12:30N 48°22' W 123°25'5 9.1
2017-Dec-13 12:00N 48°23' W 123°18'612.3
2017-Dec-13 11:31N 48°28' W 123°12'714.2
2017-Dec-13 11:00N 48°35' W 123°14'713.7
2017-Dec-13 10:31N 48°42' W 123°15'713.3
2017-Dec-13 10:00N 48°45' W 123°06'510.9
2017-Dec-13 09:30N 48°50' W 123°02'713.7
2017-Dec-13 09:00N 48°54' W 123°09'713.5
2017-Dec-13 08:30N 48°59' W 123°17'611.2
2017-Dec-13 08:00N 49°04' W 123°20'510.1
2017-Dec-13 07:30N 49°08' W 123°15'611.5
2017-Dec-13 07:00N 49°07' W 123°06'611.4
2017-Dec-13 06:30N 49°09' W 122°58'3 5.8
2017-Dec-13 06:01N 49°11' W 122°55'0 0.2
2017-Dec-13 05:29N 49°11' W 122°55'0 0.0
2017-Dec-13 04:59N 49°11' W 122°55'0 0.0
2017-Dec-13 04:29N 49°11' W 122°55'0 0.0
2017-Dec-13 03:59N 49°11' W 122°55'0 0.0
2017-Dec-13 03:29N 49°11' W 122°55'0 0.0
2017-Dec-13 02:59N 49°11' W 122°55'0 0.0
2017-Dec-13 02:29N 49°11' W 122°55'0 0.0
2017-Dec-13 01:59N 49°11' W 122°55'0 0.0
2017-Dec-13 01:29N 49°11' W 122°55'0 0.0
2017-Dec-13 00:59N 49°11' W 122°55'0 0.0
2017-Dec-13 00:29N 49°11' W 122°55'0 0.0
2017-Dec-12 23:59N 49°11' W 122°55'0 0.0
2017-Dec-12 23:29N 49°11' W 122°55'0 0.0
2017-Dec-12 22:59N 49°11' W 122°55'0 0.0
2017-Dec-12 22:29N 49°11' W 122°55'0 0.0
2017-Dec-12 21:59N 49°11' W 122°55'0 0.0
2017-Dec-12 21:29N 49°11' W 122°55'0 0.0
2017-Dec-12 20:59N 49°11' W 122°55'0 0.0
2017-Dec-12 20:29N 49°11' W 122°55'0 0.0
2017-Dec-12 19:59N 49°11' W 122°55'0 0.0
2017-Dec-12 19:29N 49°11' W 122°55'0 0.0
2017-Dec-12 18:56N 49°11' W 122°55'0 0.0
2017-Dec-12 18:26N 49°11' W 122°55'0 0.0
2017-Dec-12 17:59N 49°11' W 122°55'0 0.0
2017-Dec-12 17:29N 49°11' W 122°55'0 0.0
2017-Dec-12 16:59N 49°11' W 122°55'0 0.0
2017-Dec-12 16:29N 49°11' W 122°55'0 0.0
2017-Dec-12 15:59N 49°11' W 122°55'0 0.0
2017-Dec-12 15:29N 49°11' W 122°55'0 0.0
2017-Dec-12 14:59N 49°11' W 122°55'0 0.0
2017-Dec-12 14:29N 49°11' W 122°55'0 0.0
2017-Dec-12 13:59N 49°11' W 122°55'0 0.0
2017-Dec-12 13:29N 49°11' W 122°55'0 0.0
2017-Dec-12 12:59N 49°11' W 122°55'0 0.0
2017-Dec-12 12:29N 49°11' W 122°55'0 0.0
2017-Dec-12 11:59N 49°11' W 122°55'0 0.0
2017-Dec-12 11:29N 49°11' W 122°55'0 0.0
2017-Dec-12 10:59N 49°11' W 122°55'0 0.0
2017-Dec-12 10:29N 49°11' W 122°55'0 0.0
2017-Dec-12 09:59N 49°11' W 122°55'0 0.0
2017-Dec-12 09:29N 49°11' W 122°55'0 0.0
2017-Dec-12 08:59N 49°11' W 122°55'0 0.0
2017-Dec-12 08:29N 49°11' W 122°55'0 0.0
2017-Dec-12 07:59N 49°11' W 122°55'0 0.0
2017-Dec-12 07:29N 49°11' W 122°55'0 0.0
2017-Dec-12 06:56N 49°11' W 122°55'0 0.0
2017-Dec-12 06:29N 49°11' W 122°55'0 0.0
2017-Dec-12 05:59N 49°11' W 122°55'0 0.0
2017-Dec-12 05:29N 49°11' W 122°55'0 0.0
2017-Dec-12 04:59N 49°11' W 122°55'0 0.0
2017-Dec-12 04:29N 49°11' W 122°55'0 0.0
2017-Dec-12 03:59N 49°11' W 122°55'0 0.0
2017-Dec-12 03:29N 49°11' W 122°55'0 0.0
2017-Dec-12 02:59N 49°11' W 122°55'0 0.0
2017-Dec-12 02:29N 49°11' W 122°55'0 0.0
2017-Dec-12 01:59N 49°11' W 122°55'0 0.0
2017-Dec-12 01:26N 49°11' W 122°55'0 0.0
2017-Dec-12 00:56N 49°11' W 122°55'0 0.0
2017-Dec-12 00:29N 49°11' W 122°55'0 0.0
2017-Dec-11 23:59N 49°11' W 122°55'0 0.0
2017-Dec-11 23:29N 49°11' W 122°55'0 0.0
2017-Dec-11 22:59N 49°11' W 122°55'0 0.0
2017-Dec-11 22:29N 49°11' W 122°55'0 0.0
2017-Dec-11 21:59N 49°11' W 122°55'0 0.0
2017-Dec-11 21:26N 49°11' W 122°55'0 0.0
2017-Dec-11 20:59N 49°11' W 122°55'0 0.0
2017-Dec-11 20:29N 49°11' W 122°55'0 0.0
2017-Dec-11 19:59N 49°11' W 122°55'0 0.0
2017-Dec-11 19:29N 49°11' W 122°55'0 0.0
2017-Dec-11 18:59N 49°11' W 122°55'0 0.0
2017-Dec-11 18:29N 49°11' W 122°55'0 0.0
2017-Dec-11 17:59N 49°11' W 122°55'0 0.0
2017-Dec-11 17:29N 49°11' W 122°55'0 0.0
2017-Dec-11 16:59N 49°11' W 122°55'0 0.0
2017-Dec-11 16:29N 49°11' W 122°55'0 0.0
2017-Dec-11 15:59N 49°11' W 122°55'0 0.0
2017-Dec-11 15:29N 49°11' W 122°55'0 0.0
2017-Dec-11 14:59N 49°11' W 122°55'0 0.0
2017-Dec-11 14:29N 49°11' W 122°55'0 0.0
2017-Dec-11 13:59N 49°11' W 122°55'0 0.0
2017-Dec-11 13:29N 49°11' W 122°55'0 0.0
2017-Dec-11 12:59N 49°11' W 122°55'0 0.0
2017-Dec-11 12:29N 49°11' W 122°55'0 0.0
2017-Dec-11 11:59N 49°11' W 122°55'0 0.0
2017-Dec-11 11:29N 49°11' W 122°55'0 0.0
2017-Dec-11 10:59N 49°11' W 122°55'0 0.0
2017-Dec-11 10:29N 49°11' W 122°55'0 0.0
2017-Dec-11 09:59N 49°11' W 122°55'0 0.0
2017-Dec-11 09:29N 49°11' W 122°55'0 0.0
2017-Dec-11 08:59N 49°11' W 122°55'0 0.0
2017-Dec-11 08:29N 49°11' W 122°55'0 0.0
2017-Dec-11 07:59N 49°11' W 122°55'0 0.0
2017-Dec-11 07:29N 49°11' W 122°55'0 0.0
2017-Dec-11 06:59N 49°11' W 122°55'0 0.0
2017-Dec-11 06:29N 49°11' W 122°55'0 0.0
2017-Dec-11 05:59N 49°11' W 122°55'0 0.0
2017-Dec-11 05:29N 49°11' W 122°55'0 0.0
2017-Dec-11 04:59N 49°11' W 122°55'0 0.0
2017-Dec-11 04:29N 49°11' W 122°55'0 0.0
2017-Dec-11 03:59N 49°11' W 122°55'0 0.0
2017-Dec-11 03:29N 49°11' W 122°55'0 0.0
2017-Dec-11 02:59N 49°11' W 122°55'0 0.0
2017-Dec-11 02:29N 49°11' W 122°55'0 0.0
2017-Dec-11 01:59N 49°11' W 122°55'0 0.0
2017-Dec-11 01:29N 49°11' W 122°55'0 0.0
2017-Dec-11 00:59N 49°11' W 122°55'0 0.0
2017-Dec-11 00:29N 49°11' W 122°55'0 0.0
2017-Dec-10 23:59N 49°11' W 122°55'0 0.0
2017-Dec-10 23:29N 49°11' W 122°55'0 0.0
2017-Dec-10 22:59N 49°11' W 122°55'0 0.0
2017-Dec-10 22:29N 49°11' W 122°55'0 0.0
2017-Dec-10 21:59N 49°11' W 122°55'0 0.0
2017-Dec-10 21:29N 49°11' W 122°55'0 0.0
2017-Dec-10 20:59N 49°11' W 122°55'0 0.0
2017-Dec-10 20:29N 49°11' W 122°55'0 0.0
2017-Dec-10 19:59N 49°11' W 122°55'0 0.0
2017-Dec-10 19:29N 49°11' W 122°55'0 0.0
2017-Dec-10 18:59N 49°11' W 122°55'0 0.0
2017-Dec-10 18:29N 49°11' W 122°55'0 0.0
2017-Dec-10 17:59N 49°11' W 122°55'0 0.0
2017-Dec-10 17:29N 49°11' W 122°55'0 0.0
2017-Dec-10 16:59N 49°11' W 122°55'0 0.0
2017-Dec-10 16:29N 49°11' W 122°55'0 0.0
2017-Dec-10 15:59N 49°11' W 122°55'0 0.0
2017-Dec-10 15:29N 49°11' W 122°55'0 0.0
2017-Dec-10 14:59N 49°11' W 122°55'0 0.0
2017-Dec-10 14:29N 49°11' W 122°55'0 0.0
2017-Dec-10 13:59N 49°11' W 122°55'0 0.0
2017-Dec-10 13:29N 49°11' W 122°55'0 0.0
2017-Dec-10 12:59N 49°11' W 122°55'0 0.0
2017-Dec-10 12:29N 49°11' W 122°55'0 0.0
2017-Dec-10 11:59N 49°11' W 122°55'0 0.0
2017-Dec-10 11:29N 49°11' W 122°55'0 0.0
2017-Dec-10 10:59N 49°11' W 122°55'0 0.0
2017-Dec-10 10:29N 49°11' W 122°55'0 0.0
2017-Dec-10 09:59N 49°11' W 122°55'0 0.0
2017-Dec-10 09:29N 49°11' W 122°55'0 0.0
2017-Dec-10 08:59N 49°11' W 122°55'0 0.0
2017-Dec-10 08:29N 49°11' W 122°55'0 0.0
2017-Dec-10 07:59N 49°11' W 122°55'0 0.0
2017-Dec-10 07:29N 49°11' W 122°55'0 0.0
2017-Dec-10 06:59N 49°11' W 122°55'0 0.0
2017-Dec-10 06:29N 49°11' W 122°55'0 0.0
2017-Dec-10 05:59N 49°11' W 122°55'0 0.0
2017-Dec-10 05:29N 49°11' W 122°55'0 0.0
2017-Dec-10 04:59N 49°11' W 122°55'0 0.0
2017-Dec-10 04:29N 49°11' W 122°55'0 0.0
2017-Dec-10 03:59N 49°11' W 122°55'0 0.0
2017-Dec-10 03:29N 49°11' W 122°55'0 0.0
2017-Dec-10 02:59N 49°11' W 122°55'0 0.0
2017-Dec-10 02:29N 49°11' W 122°55'0 0.0
2017-Dec-10 01:59N 49°11' W 122°55'0 0.0
2017-Dec-10 01:29N 49°11' W 122°55'0 0.0
2017-Dec-10 00:59N 49°11' W 122°55'0 0.0
2017-Dec-10 00:29N 49°11' W 122°55'0 0.0
2017-Dec-09 23:59N 49°11' W 122°55'0 0.0
2017-Dec-09 23:29N 49°11' W 122°55'0 0.0
2017-Dec-09 22:59N 49°11' W 122°55'0 0.0
2017-Dec-09 22:29N 49°11' W 122°55'0 0.0
2017-Dec-09 21:59N 49°11' W 122°55'0 0.0
2017-Dec-09 21:29N 49°11' W 122°55'0 0.0
2017-Dec-09 20:59N 49°11' W 122°55'0 0.0
2017-Dec-09 20:29N 49°11' W 122°55'0 0.0
2017-Dec-09 19:59N 49°11' W 122°55'0 0.0
2017-Dec-09 19:29N 49°11' W 122°55'0 0.0
2017-Dec-09 18:59N 49°11' W 122°55'0 0.0
2017-Dec-09 18:29N 49°11' W 122°55'0 0.0
2017-Dec-09 17:59N 49°11' W 122°55'0 0.0
2017-Dec-09 17:29N 49°11' W 122°55'0 0.0
2017-Dec-09 16:59N 49°11' W 122°55'0 0.0
2017-Dec-09 16:29N 49°11' W 122°55'0 0.0
2017-Dec-09 15:59N 49°11' W 122°55'0 0.0
2017-Dec-09 15:29N 49°11' W 122°55'0 0.0
2017-Dec-09 14:59N 49°11' W 122°55'0 0.0
2017-Dec-09 14:29N 49°11' W 122°55'0 0.0
2017-Dec-09 13:59N 49°11' W 122°55'0 0.0
2017-Dec-09 13:29N 49°11' W 122°55'0 0.0
2017-Dec-09 12:59N 49°11' W 122°55'0 0.0
2017-Dec-09 12:29N 49°11' W 122°55'0 0.0
2017-Dec-09 11:59N 49°11' W 122°55'0 0.0
2017-Dec-09 11:29N 49°11' W 122°55'0 0.0
2017-Dec-09 10:59N 49°11' W 122°55'0 0.0
2017-Dec-09 10:29N 49°11' W 122°55'0 0.0
2017-Dec-09 09:59N 49°11' W 122°55'0 0.0
2017-Dec-09 09:29N 49°11' W 122°55'0 0.0
2017-Dec-09 08:59N 49°11' W 122°55'0 0.0
2017-Dec-09 08:29N 49°11' W 122°55'0 0.0
2017-Dec-09 07:59N 49°11' W 122°55'0 0.0
2017-Dec-09 07:29N 49°11' W 122°55'0 0.0
2017-Dec-09 06:56N 49°11' W 122°55'0 0.0
2017-Dec-09 06:29N 49°11' W 122°55'0 0.0
2017-Dec-09 05:59N 49°11' W 122°55'0 0.0
2017-Dec-09 05:29N 49°11' W 122°55'0 0.0
2017-Dec-09 04:59N 49°11' W 122°55'0 0.0
2017-Dec-09 04:29N 49°11' W 122°55'0 0.0
2017-Dec-09 03:59N 49°11' W 122°55'0 0.0
2017-Dec-09 03:29N 49°11' W 122°55'0 0.0
2017-Dec-09 02:59N 49°11' W 122°55'0 0.0
2017-Dec-09 02:29N 49°11' W 122°55'0 0.0
2017-Dec-09 01:59N 49°11' W 122°55'0 0.0
2017-Dec-09 01:26N 49°11' W 122°55'0 0.0
2017-Dec-09 00:59N 49°11' W 122°55'0 0.0
2017-Dec-09 00:29N 49°11' W 122°55'0 0.0
2017-Dec-08 23:59N 49°11' W 122°55'0 0.0
2017-Dec-08 23:26N 49°11' W 122°55'0 0.0
2017-Dec-08 22:59N 49°11' W 122°55'0 0.0
2017-Dec-08 22:29N 49°11' W 122°55'0 0.0
2017-Dec-08 21:59N 49°11' W 122°55'0 0.0
2017-Dec-08 21:29N 49°11' W 122°55'0 0.2
2017-Dec-08 21:00N 49°11' W 122°55'1 2.7
2017-Dec-08 20:30N 49°10' W 122°56'4 8.9
2017-Dec-08 20:00N 49°09' W 123°02'5 9.4
2017-Dec-08 19:30N 49°06' W 123°09'5 9.6
2017-Dec-08 19:00N 49°07' W 123°16'4 8.6
2017-Dec-08 18:30N 49°05' W 123°21'510.2
2017-Dec-08 18:00N 49°01' W 123°15'612.1
2017-Dec-08 17:30N 48°57' W 123°09'612.5
2017-Dec-08 17:00N 48°52' W 123°02'611.2
2017-Dec-08 16:31N 48°47' W 123°01'714.5
2017-Dec-08 16:01N 48°43' W 123°11'510.6
2017-Dec-08 15:31N 48°38' W 123°14'714.6
2017-Dec-08 15:01N 48°31' W 123°11'713.6
2017-Dec-08 14:31N 48°24' W 123°12'713.6
2017-Dec-08 14:01N 48°22' W 123°22'3 6.3
2017-Dec-08 13:31N 48°19' W 123°24'3 6.5
2017-Dec-08 13:01N 48°16' W 123°26'5 9.1
2017-Dec-08 12:30N 48°13' W 123°32'4 8.2
2017-Dec-08 12:00N 48°13' W 123°38'5 9.9
2017-Dec-08 11:31N 48°13' W 123°45'510.3
2017-Dec-08 11:00N 48°13' W 123°53'5 9.8
2017-Dec-08 10:31N 48°15' W 123°60'611.3
2017-Dec-08 10:01N 48°17' W 124°08'510.8
2017-Dec-08 09:31N 48°19' W 124°15'510.2
2017-Dec-08 09:01N 48°22' W 124°22'5 9.8
2017-Dec-08 08:31N 48°24' W 124°29'5 9.4
2017-Dec-08 08:01N 48°26' W 124°35'4219.3
2017-Dec-08 08:00N 48°24' W 124°30'816.7 120 / 151031.0 5.4 7.0-0.0 8.0
2017-Dec-08 07:30N 48°27' W 124°41'4 8.8
2017-Dec-08 07:00N 48°28' W 124°48'5 9.4
2017-Dec-08 06:30N 48°29' W 124°55'5 9.9
2017-Dec-08 06:01N 48°29' W 125°02'510.0
2017-Dec-08 05:31N 48°28' W 125°10'510.3
2017-Dec-08 05:00N 48°29' W 125°17'510.5
2017-Dec-08 04:30N 48°30' W 125°25'510.4
2017-Dec-08 04:00N 48°30' W 125°33'510.5
2017-Dec-08 03:30N 48°31' W 125°41'510.4
2017-Dec-08 03:01N 48°31' W 125°49'510.7
2017-Dec-08 02:30N 48°32' W 125°57'510.7
2017-Dec-08 02:00N 48°33' W 126°05'611.0
2017-Dec-08 01:30N 48°33' W 126°13'611.2
2017-Dec-08 01:00N 48°34' W 126°21'611.2
2017-Dec-08 00:31N 48°34' W 126°30'611.2
2017-Dec-08 00:00N 48°35' W 126°38'5356.6
2017-Dec-08 00:00N 48°30' W 126°36'918.6 120 / 221028.027.0 11.0 7.2 8.0
2017-Dec-07 23:30N 48°36' W 126°47'511.0
2017-Dec-07 23:01N 48°36' W 126°55'611.0
2017-Dec-07 22:28N 48°36' W 127°04'510.6
2017-Dec-07 22:00N 48°37' W 127°11'5 7.3
2017-Dec-07 21:22N 48°38' W 127°18'511.3
2017-Dec-07 20:56N 48°38' W 127°26'1011.4
2017-Dec-07 20:03N 48°40' W 127°41'592.7
2017-Dec-07 20:00N 48°36' W 127°36'1218.6 130 / 261027.0 5.4 11.0 5.0 7.0
2017-Dec-07 19:22N 48°40' W 127°52'511.3
2017-Dec-07 18:55N 48°41' W 127°60'8 8.7
2017-Dec-07 18:00N 48°42' W 128°12'3611.9 130 / 251027.010.8 10.0 3.8 7.0
2017-Dec-07 15:00N 48°42' W 129°06'4411.0 130 / 231026.810.8 9.0 4.9 8.0
2017-Dec-07 11:00N 48°48' W 130°12'3612.0 140 / 231027.0 5.4 9.0 7.0 7.0
2017-Dec-07 08:00N 48°54' W 131°06'6310.6 130 / 241027.010.8 9.0 7.0 7.0
2017-Dec-07 02:00N 49°00' W 132°42'20 9.8 140 / 251026.510.8 9.0 6.0 7.0
2017-Dec-07 00:00N 49°00' W 133°12'4110.3 140 / 291026.0 2.2 10.0 6.0 6.0
2017-Dec-06 20:00N 49°12' W 134°12'8 7.8 140 / 301026.0 2.2 11.0 5.0 6.0
2017-Dec-06 19:00N 49°12' W 134°24'43 8.6 140 / 301025.0 5.4 10.0 3.8 6.0
2017-Dec-06 14:00N 49°30' W 135°24'5919.6 140 / 301025.010.8 8.5 5.5 6.0
2017-Dec-06 11:00N 49°36' W 136°54'26 8.7 150 / 281025.0 2.2 9.0 2.5 6.0
2017-Dec-06 08:00N 49°48' W 136°18'13 6.3 150 / 331025.0 2.2 9.0 2.5 6.0
2017-Dec-06 06:00N 50°00' W 136°24'   150 / 351025.0 5.4 9.0 4.9 6.0

Dump ship's entire track history